Elyxir — WDJ3988 — position and weather

sailwx.info

Track history (hours):
 
Tides and Currents Weather Stations Pressure Air Temp Water Temp Dewpoint Dewpoint Depression Visibility Wind Speed Wind Dir Waves Ship Positions

Elyxir

Owner: Ely, Paul C, La Selva Beach, CA. More information available from US FCC via Universal Licensing System and Coast Guard Vessel Documentation Center.

Last reported at 2017-Sep-23 19:35 UTC. Time now 2017-Oct-22 08:01 UTC.
Position N 37°47' W 122°31'.
Warning: this ship's position is 28 days out of date.

Length 16 m.

Type: Sailing vessel. MMSI: 367165320.

Date/timePositionNaut miles runAvg speedWind from/ knotsBaromVisibWave heightAir tempDewpointWater temp
2017-Sep-23 19:35N 37°47' W 122°31'  
2017-Sep-18 21:38N 37°48' W 122°27'0 0.0
2017-Sep-18 21:29N 37°48' W 122°27'0 0.0
2017-Sep-18 20:59N 37°48' W 122°27'0 0.0
2017-Sep-18 20:29N 37°48' W 122°27'0 0.0
2017-Sep-18 19:59N 37°48' W 122°27'0 0.0
2017-Sep-18 19:29N 37°48' W 122°27'0 0.0
2017-Sep-18 18:59N 37°48' W 122°27'0 0.0
2017-Sep-18 18:29N 37°48' W 122°27'0 0.0
2017-Sep-18 17:59N 37°48' W 122°27'0 0.0
2017-Sep-18 17:29N 37°48' W 122°27'0 0.0
2017-Sep-18 16:59N 37°48' W 122°27'0 0.3
2017-Sep-18 16:30N 37°48' W 122°27'0 0.0
2017-Sep-18 16:00N 37°48' W 122°27'0 0.0
2017-Sep-18 15:30N 37°48' W 122°27'0 0.0
2017-Sep-18 15:00N 37°48' W 122°27'0 0.0
2017-Sep-18 14:30N 37°48' W 122°27'0 0.0
2017-Sep-18 14:00N 37°48' W 122°27'0 0.0
2017-Sep-18 13:30N 37°48' W 122°27'0 0.0
2017-Sep-18 13:00N 37°48' W 122°27'0 0.0
2017-Sep-18 12:30N 37°48' W 122°27'0 0.0
2017-Sep-18 11:57N 37°48' W 122°27'0 0.0
2017-Sep-18 11:27N 37°48' W 122°27'0 0.0
2017-Sep-18 11:00N 37°48' W 122°27'0 0.0
2017-Sep-18 10:30N 37°48' W 122°27'0 0.0
2017-Sep-18 10:00N 37°48' W 122°27'0 0.0
2017-Sep-18 09:30N 37°48' W 122°27'0 0.0
2017-Sep-18 08:57N 37°48' W 122°27'0 0.0
2017-Sep-18 08:30N 37°48' W 122°27'0 0.0
2017-Sep-18 08:00N 37°48' W 122°27'0 0.0
2017-Sep-18 07:30N 37°48' W 122°27'0 0.0
2017-Sep-18 07:00N 37°48' W 122°27'0 0.0
2017-Sep-18 06:27N 37°48' W 122°27'0 0.0
2017-Sep-18 06:00N 37°48' W 122°27'0 0.0
2017-Sep-18 05:30N 37°48' W 122°27'0 0.0
2017-Sep-18 05:00N 37°48' W 122°27'0 0.0
2017-Sep-18 04:30N 37°48' W 122°27'0 0.0
2017-Sep-18 04:00N 37°48' W 122°27'0 0.0
2017-Sep-18 03:30N 37°48' W 122°27'0 0.0
2017-Sep-18 03:00N 37°48' W 122°27'0 0.0
2017-Sep-18 02:30N 37°48' W 122°27'0 0.0
2017-Sep-18 02:00N 37°48' W 122°27'0 0.0
2017-Sep-18 01:30N 37°48' W 122°27'0 0.0
2017-Sep-18 01:00N 37°48' W 122°27'0 0.0
2017-Sep-18 00:30N 37°48' W 122°27'0 0.0
2017-Sep-18 00:00N 37°48' W 122°27'0 0.0
2017-Sep-17 23:30N 37°48' W 122°27'0 0.0
2017-Sep-17 23:00N 37°48' W 122°27'0 0.0
2017-Sep-17 22:30N 37°48' W 122°27'0 0.0
2017-Sep-17 22:00N 37°48' W 122°27'0 0.0
2017-Sep-17 21:30N 37°48' W 122°27'1 1.4
2017-Sep-17 21:00N 37°49' W 122°27'1 2.5
2017-Sep-17 20:30N 37°49' W 122°26'3 6.4
2017-Sep-17 20:00N 37°50' W 122°22'2 3.4
2017-Sep-17 19:30N 37°50' W 122°24'3 5.6
2017-Sep-17 19:00N 37°49' W 122°27'1 2.7
2017-Sep-17 18:30N 37°49' W 122°26'0 0.9
2017-Sep-17 18:00N 37°50' W 122°26'0 0.5
2017-Sep-17 17:29N 37°50' W 122°26'1 2.7
2017-Sep-17 17:00N 37°48' W 122°27'0 0.0
2017-Sep-17 00:12N 37°48' W 122°27'0 0.0
2017-Sep-17 00:00N 37°48' W 122°27'2 0.8
2017-Sep-16 22:08N 37°50' W 122°27'2 7.5
2017-Sep-16 21:55N 37°50' W 122°25'2 2.7
2017-Sep-16 21:07N 37°49' W 122°28'1 9.0
2017-Sep-16 21:00N 37°49' W 122°27'1 1.3
2017-Sep-16 20:29N 37°49' W 122°26'2 3.6
2017-Sep-16 20:00N 37°49' W 122°24'1 2.4
2017-Sep-16 19:29N 37°49' W 122°25'1 1.3
2017-Sep-16 18:41N 37°49' W 122°26'1 6.8
2017-Sep-16 18:30N 37°49' W 122°25'2 3.1
2017-Sep-16 17:59N 37°49' W 122°23'1 1.5
2017-Sep-16 17:30N 37°49' W 122°24'2 4.4
2017-Sep-16 16:58N 37°48' W 122°27'0 0.0
2017-Sep-16 01:12N 37°48' W 122°27'0 0.0
2017-Sep-16 01:00N 37°48' W 122°27'0 0.0
2017-Sep-16 00:30N 37°48' W 122°27'0 0.0
2017-Sep-16 00:00N 37°48' W 122°27'1 1.8
2017-Sep-15 23:30N 37°49' W 122°28'1 2.2
2017-Sep-15 23:00N 37°50' W 122°27'0 0.4
2017-Sep-15 22:30N 37°50' W 122°27'3 6.1
2017-Sep-15 22:00N 37°49' W 122°23'0 0.6
2017-Sep-15 21:30N 37°50' W 122°23'1 2.8
2017-Sep-15 20:58N 37°50' W 122°25'2 4.6
2017-Sep-15 20:29N 37°51' W 122°28'2 3.5
2017-Sep-15 19:58N 37°50' W 122°25'2 3.6
2017-Sep-15 19:30N 37°49' W 122°27'1 1.4
2017-Sep-15 18:59N 37°50' W 122°26'1 2.0
2017-Sep-15 18:30N 37°50' W 122°27'1 2.7
2017-Sep-15 18:00N 37°48' W 122°27'0 0.0
2017-Sep-15 17:30N 37°48' W 122°27'0 0.0
2017-Sep-15 17:00N 37°48' W 122°27'0 0.0
2017-Sep-15 16:30N 37°48' W 122°27'0 0.0
2017-Sep-15 00:18N 37°48' W 122°27'0 0.0
2017-Sep-15 00:00N 37°48' W 122°27'0 0.0
2017-Sep-14 23:30N 37°48' W 122°27'0 0.1
2017-Sep-14 23:00N 37°48' W 122°27'1 2.4
2017-Sep-14 22:30N 37°49' W 122°26'2 3.9
2017-Sep-14 21:59N 37°49' W 122°29'2 2.9
2017-Sep-14 21:23N 37°50' W 122°27'0 1.1
2017-Sep-14 21:00N 37°49' W 122°27'1 1.1
2017-Sep-14 20:30N 37°49' W 122°26'2 4.4
2017-Sep-14 19:59N 37°50' W 122°23'1 2.2
2017-Sep-14 19:29N 37°49' W 122°24'2 4.6
2017-Sep-14 19:00N 37°49' W 122°27'3 5.0
2017-Sep-14 18:30N 37°49' W 122°24'1 1.2
2017-Sep-14 17:59N 37°49' W 122°23'1 1.3
2017-Sep-14 17:30N 37°49' W 122°24'2 3.6
2017-Sep-14 17:00N 37°49' W 122°26'1 1.0
2017-Sep-14 16:29N 37°48' W 122°27'0 0.0
2017-Sep-14 00:55N 37°48' W 122°27'0 0.0
2017-Sep-14 00:28N 37°48' W 122°27'0 0.0
2017-Sep-13 23:58N 37°48' W 122°27'0 0.0
2017-Sep-13 23:28N 37°48' W 122°27'0 0.0
2017-Sep-13 22:58N 37°48' W 122°27'0 0.0
2017-Sep-13 22:28N 37°48' W 122°27'0 0.0
2017-Sep-13 21:58N 37°48' W 122°27'0 0.0
2017-Sep-13 21:28N 37°48' W 122°27'0 0.0
2017-Sep-13 20:58N 37°48' W 122°27'0 0.0
2017-Sep-13 20:28N 37°48' W 122°27'0 0.0
2017-Sep-13 19:58N 37°48' W 122°27'  
Track history (hours):
 
Tides and Currents Weather Stations Pressure Air Temp Water Temp Dewpoint Dewpoint Depression Visibility Wind Speed Wind Dir Waves Ship Positions

Elyxir

Owner: Ely, Paul C, La Selva Beach, CA. More information available from US FCC via Universal Licensing System and Coast Guard Vessel Documentation Center.

Last reported at 2017-Sep-23 19:35 UTC. Time now 2017-Oct-22 08:01 UTC.
Position N 37°47' W 122°31'.
Warning: this ship's position is 28 days out of date.

Length 16 m.

Type: Sailing vessel. MMSI: 367165320.

Date/timePositionNaut miles runAvg speedWind from/ knotsBaromVisibWave heightAir tempDewpointWater temp
2017-Sep-23 19:35N 37°47' W 122°31'  
2017-Sep-18 21:38N 37°48' W 122°27'0 0.0
2017-Sep-18 21:29N 37°48' W 122°27'0 0.0
2017-Sep-18 20:59N 37°48' W 122°27'0 0.0
2017-Sep-18 20:29N 37°48' W 122°27'0 0.0
2017-Sep-18 19:59N 37°48' W 122°27'0 0.0
2017-Sep-18 19:29N 37°48' W 122°27'0 0.0
2017-Sep-18 18:59N 37°48' W 122°27'0 0.0
2017-Sep-18 18:29N 37°48' W 122°27'0 0.0
2017-Sep-18 17:59N 37°48' W 122°27'0 0.0
2017-Sep-18 17:29N 37°48' W 122°27'0 0.0
2017-Sep-18 16:59N 37°48' W 122°27'0 0.3
2017-Sep-18 16:30N 37°48' W 122°27'0 0.0
2017-Sep-18 16:00N 37°48' W 122°27'0 0.0
2017-Sep-18 15:30N 37°48' W 122°27'0 0.0
2017-Sep-18 15:00N 37°48' W 122°27'0 0.0
2017-Sep-18 14:30N 37°48' W 122°27'0 0.0
2017-Sep-18 14:00N 37°48' W 122°27'0 0.0
2017-Sep-18 13:30N 37°48' W 122°27'0 0.0
2017-Sep-18 13:00N 37°48' W 122°27'0 0.0
2017-Sep-18 12:30N 37°48' W 122°27'0 0.0
2017-Sep-18 11:57N 37°48' W 122°27'0 0.0
2017-Sep-18 11:27N 37°48' W 122°27'0 0.0
2017-Sep-18 11:00N 37°48' W 122°27'0 0.0
2017-Sep-18 10:30N 37°48' W 122°27'0 0.0
2017-Sep-18 10:00N 37°48' W 122°27'0 0.0
2017-Sep-18 09:30N 37°48' W 122°27'0 0.0
2017-Sep-18 08:57N 37°48' W 122°27'0 0.0
2017-Sep-18 08:30N 37°48' W 122°27'0 0.0
2017-Sep-18 08:00N 37°48' W 122°27'0 0.0
2017-Sep-18 07:30N 37°48' W 122°27'0 0.0
2017-Sep-18 07:00N 37°48' W 122°27'0 0.0
2017-Sep-18 06:27N 37°48' W 122°27'0 0.0
2017-Sep-18 06:00N 37°48' W 122°27'0 0.0
2017-Sep-18 05:30N 37°48' W 122°27'0 0.0
2017-Sep-18 05:00N 37°48' W 122°27'0 0.0
2017-Sep-18 04:30N 37°48' W 122°27'0 0.0
2017-Sep-18 04:00N 37°48' W 122°27'0 0.0
2017-Sep-18 03:30N 37°48' W 122°27'0 0.0
2017-Sep-18 03:00N 37°48' W 122°27'0 0.0
2017-Sep-18 02:30N 37°48' W 122°27'0 0.0
2017-Sep-18 02:00N 37°48' W 122°27'0 0.0
2017-Sep-18 01:30N 37°48' W 122°27'0 0.0
2017-Sep-18 01:00N 37°48' W 122°27'0 0.0
2017-Sep-18 00:30N 37°48' W 122°27'0 0.0
2017-Sep-18 00:00N 37°48' W 122°27'0 0.0
2017-Sep-17 23:30N 37°48' W 122°27'0 0.0
2017-Sep-17 23:00N 37°48' W 122°27'0 0.0
2017-Sep-17 22:30N 37°48' W 122°27'0 0.0
2017-Sep-17 22:00N 37°48' W 122°27'0 0.0
2017-Sep-17 21:30N 37°48' W 122°27'1 1.4
2017-Sep-17 21:00N 37°49' W 122°27'1 2.5
2017-Sep-17 20:30N 37°49' W 122°26'3 6.4
2017-Sep-17 20:00N 37°50' W 122°22'2 3.4
2017-Sep-17 19:30N 37°50' W 122°24'3 5.6
2017-Sep-17 19:00N 37°49' W 122°27'1 2.7
2017-Sep-17 18:30N 37°49' W 122°26'0 0.9
2017-Sep-17 18:00N 37°50' W 122°26'0 0.5
2017-Sep-17 17:29N 37°50' W 122°26'1 2.7
2017-Sep-17 17:00N 37°48' W 122°27'0 0.0
2017-Sep-17 00:12N 37°48' W 122°27'0 0.0
2017-Sep-17 00:00N 37°48' W 122°27'2 0.8
2017-Sep-16 22:08N 37°50' W 122°27'2 7.5
2017-Sep-16 21:55N 37°50' W 122°25'2 2.7
2017-Sep-16 21:07N 37°49' W 122°28'1 9.0
2017-Sep-16 21:00N 37°49' W 122°27'1 1.3
2017-Sep-16 20:29N 37°49' W 122°26'2 3.6
2017-Sep-16 20:00N 37°49' W 122°24'1 2.4
2017-Sep-16 19:29N 37°49' W 122°25'1 1.3
2017-Sep-16 18:41N 37°49' W 122°26'1 6.8
2017-Sep-16 18:30N 37°49' W 122°25'2 3.1
2017-Sep-16 17:59N 37°49' W 122°23'1 1.5
2017-Sep-16 17:30N 37°49' W 122°24'2 4.4
2017-Sep-16 16:58N 37°48' W 122°27'0 0.0
2017-Sep-16 01:12N 37°48' W 122°27'0 0.0
2017-Sep-16 01:00N 37°48' W 122°27'0 0.0
2017-Sep-16 00:30N 37°48' W 122°27'0 0.0
2017-Sep-16 00:00N 37°48' W 122°27'1 1.8
2017-Sep-15 23:30N 37°49' W 122°28'1 2.2
2017-Sep-15 23:00N 37°50' W 122°27'0 0.4
2017-Sep-15 22:30N 37°50' W 122°27'3 6.1
2017-Sep-15 22:00N 37°49' W 122°23'0 0.6
2017-Sep-15 21:30N 37°50' W 122°23'1 2.8
2017-Sep-15 20:58N 37°50' W 122°25'2 4.6
2017-Sep-15 20:29N 37°51' W 122°28'2 3.5
2017-Sep-15 19:58N 37°50' W 122°25'2 3.6
2017-Sep-15 19:30N 37°49' W 122°27'1 1.4
2017-Sep-15 18:59N 37°50' W 122°26'1 2.0
2017-Sep-15 18:30N 37°50' W 122°27'1 2.7
2017-Sep-15 18:00N 37°48' W 122°27'0 0.0
2017-Sep-15 17:30N 37°48' W 122°27'0 0.0
2017-Sep-15 17:00N 37°48' W 122°27'0 0.0
2017-Sep-15 16:30N 37°48' W 122°27'0 0.0
2017-Sep-15 00:18N 37°48' W 122°27'0 0.0
2017-Sep-15 00:00N 37°48' W 122°27'0 0.0
2017-Sep-14 23:30N 37°48' W 122°27'0 0.1
2017-Sep-14 23:00N 37°48' W 122°27'1 2.4
2017-Sep-14 22:30N 37°49' W 122°26'2 3.9
2017-Sep-14 21:59N 37°49' W 122°29'2 2.9
2017-Sep-14 21:23N 37°50' W 122°27'0 1.1
2017-Sep-14 21:00N 37°49' W 122°27'1 1.1
2017-Sep-14 20:30N 37°49' W 122°26'2 4.4
2017-Sep-14 19:59N 37°50' W 122°23'1 2.2
2017-Sep-14 19:29N 37°49' W 122°24'2 4.6
2017-Sep-14 19:00N 37°49' W 122°27'3 5.0
2017-Sep-14 18:30N 37°49' W 122°24'1 1.2
2017-Sep-14 17:59N 37°49' W 122°23'1 1.3
2017-Sep-14 17:30N 37°49' W 122°24'2 3.6
2017-Sep-14 17:00N 37°49' W 122°26'1 1.0
2017-Sep-14 16:29N 37°48' W 122°27'0 0.0
2017-Sep-14 00:55N 37°48' W 122°27'0 0.0
2017-Sep-14 00:28N 37°48' W 122°27'0 0.0
2017-Sep-13 23:58N 37°48' W 122°27'0 0.0
2017-Sep-13 23:28N 37°48' W 122°27'0 0.0
2017-Sep-13 22:58N 37°48' W 122°27'0 0.0
2017-Sep-13 22:28N 37°48' W 122°27'0 0.0
2017-Sep-13 21:58N 37°48' W 122°27'0 0.0
2017-Sep-13 21:28N 37°48' W 122°27'0 0.0
2017-Sep-13 20:58N 37°48' W 122°27'0 0.0
2017-Sep-13 20:28N 37°48' W 122°27'0 0.0
2017-Sep-13 19:58N 37°48' W 122°27'  

Dump ship's entire track history